sensor_id;sensor_type;location;lat;lon;timestamp;P1;durP1;ratioP1;P2;durP2;ratioP2
1128;SDS011;553;51.038;7.216;2024-01-15T00:00:16;76.13;;;28.58;;
1128;SDS011;553;51.038;7.216;2024-01-15T00:02:43;74.70;;;29.40;;
1128;SDS011;553;51.038;7.216;2024-01-15T00:05:10;71.20;;;29.52;;
1128;SDS011;553;51.038;7.216;2024-01-15T00:07:37;68.28;;;28.35;;
1128;SDS011;553;51.038;7.216;2024-01-15T00:10:03;61.03;;;27.35;;
1128;SDS011;553;51.038;7.216;2024-01-15T00:12:30;67.50;;;27.88;;
1128;SDS011;553;51.038;7.216;2024-01-15T00:14:57;72.55;;;30.00;;
1128;SDS011;553;51.038;7.216;2024-01-15T00:17:24;73.20;;;29.42;;
1128;SDS011;553;51.038;7.216;2024-01-15T00:19:51;63.47;;;26.20;;
1128;SDS011;553;51.038;7.216;2024-01-15T00:22:18;61.15;;;27.65;;
1128;SDS011;553;51.038;7.216;2024-01-15T00:24:45;62.10;;;27.63;;
1128;SDS011;553;51.038;7.216;2024-01-15T00:27:13;63.72;;;28.95;;
1128;SDS011;553;51.038;7.216;2024-01-15T00:29:40;72.25;;;29.38;;
1128;SDS011;553;51.038;7.216;2024-01-15T00:32:06;69.70;;;27.80;;
1128;SDS011;553;51.038;7.216;2024-01-15T00:34:33;62.25;;;28.08;;
1128;SDS011;553;51.038;7.216;2024-01-15T00:37:00;71.47;;;29.60;;
1128;SDS011;553;51.038;7.216;2024-01-15T00:39:27;62.55;;;23.33;;
1128;SDS011;553;51.038;7.216;2024-01-15T00:41:54;66.38;;;29.90;;
1128;SDS011;553;51.038;7.216;2024-01-15T00:44:20;69.00;;;32.33;;
1128;SDS011;553;51.038;7.216;2024-01-15T00:46:47;61.55;;;28.52;;
1128;SDS011;553;51.038;7.216;2024-01-15T00:49:14;64.68;;;29.15;;
1128;SDS011;553;51.038;7.216;2024-01-15T00:51:42;68.88;;;30.77;;
1128;SDS011;553;51.038;7.216;2024-01-15T00:54:09;76.57;;;30.65;;
1128;SDS011;553;51.038;7.216;2024-01-15T00:56:36;66.40;;;31.80;;
1128;SDS011;553;51.038;7.216;2024-01-15T00:59:03;71.00;;;32.78;;
1128;SDS011;553;51.038;7.216;2024-01-15T01:01:30;70.65;;;31.63;;
1128;SDS011;553;51.038;7.216;2024-01-15T01:03:57;72.50;;;33.03;;
1128;SDS011;553;51.038;7.216;2024-01-15T01:06:24;78.13;;;31.27;;
1128;SDS011;553;51.038;7.216;2024-01-15T01:08:51;76.88;;;33.40;;
1128;SDS011;553;51.038;7.216;2024-01-15T01:11:18;78.47;;;33.90;;
1128;SDS011;553;51.038;7.216;2024-01-15T01:13:44;71.60;;;33.60;;
1128;SDS011;553;51.038;7.216;2024-01-15T01:16:11;86.93;;;34.28;;
1128;SDS011;553;51.038;7.216;2024-01-15T01:18:38;84.65;;;33.55;;
1128;SDS011;553;51.038;7.216;2024-01-15T01:21:05;96.22;;;34.30;;
1128;SDS011;553;51.038;7.216;2024-01-15T01:23:32;89.88;;;34.80;;
1128;SDS011;553;51.038;7.216;2024-01-15T01:25:58;79.70;;;35.70;;
1128;SDS011;553;51.038;7.216;2024-01-15T01:28:25;83.25;;;34.13;;
1128;SDS011;553;51.038;7.216;2024-01-15T01:30:52;104.80;;;38.35;;
1128;SDS011;553;51.038;7.216;2024-01-15T01:33:19;97.03;;;38.20;;
1128;SDS011;553;51.038;7.216;2024-01-15T01:35:46;92.80;;;37.72;;
1128;SDS011;553;51.038;7.216;2024-01-15T01:38:13;105.65;;;41.45;;
1128;SDS011;553;51.038;7.216;2024-01-15T01:40:41;96.07;;;39.97;;
1128;SDS011;553;51.038;7.216;2024-01-15T01:43:08;90.90;;;37.63;;
1128;SDS011;553;51.038;7.216;2024-01-15T01:45:36;99.45;;;40.03;;
1128;SDS011;553;51.038;7.216;2024-01-15T01:48:03;107.05;;;40.35;;
1128;SDS011;553;51.038;7.216;2024-01-15T01:50:30;107.47;;;38.97;;
1128;SDS011;553;51.038;7.216;2024-01-15T01:52:58;81.47;;;35.42;;
1128;SDS011;553;51.038;7.216;2024-01-15T01:55:27;93.10;;;39.17;;
1128;SDS011;553;51.038;7.216;2024-01-15T01:57:57;103.70;;;40.85;;
1128;SDS011;553;51.038;7.216;2024-01-15T02:00:24;86.55;;;32.97;;
1128;SDS011;553;51.038;7.216;2024-01-15T02:02:50;93.00;;;37.55;;
1128;SDS011;553;51.038;7.216;2024-01-15T02:05:20;93.25;;;37.75;;
1128;SDS011;553;51.038;7.216;2024-01-15T02:07:48;78.60;;;37.40;;
1128;SDS011;553;51.038;7.216;2024-01-15T02:10:15;94.95;;;37.47;;
1128;SDS011;553;51.038;7.216;2024-01-15T02:12:42;89.85;;;36.65;;
1128;SDS011;553;51.038;7.216;2024-01-15T02:15:10;94.45;;;37.88;;
1128;SDS011;553;51.038;7.216;2024-01-15T02:17:55;100.43;;;39.55;;
1128;SDS011;553;51.038;7.216;2024-01-15T02:20:27;109.00;;;42.25;;
1128;SDS011;553;51.038;7.216;2024-01-15T02:22:54;93.65;;;42.40;;
1128;SDS011;553;51.038;7.216;2024-01-15T02:25:27;98.97;;;38.80;;
1128;SDS011;553;51.038;7.216;2024-01-15T02:27:54;95.25;;;39.75;;
1128;SDS011;553;51.038;7.216;2024-01-15T02:30:21;94.13;;;41.05;;
1128;SDS011;553;51.038;7.216;2024-01-15T02:32:50;94.00;;;40.97;;
1128;SDS011;553;51.038;7.216;2024-01-15T02:35:17;116.35;;;40.67;;
1128;SDS011;553;51.038;7.216;2024-01-15T02:37:44;107.22;;;39.10;;
1128;SDS011;553;51.038;7.216;2024-01-15T02:40:10;97.05;;;37.45;;
1128;SDS011;553;51.038;7.216;2024-01-15T02:42:37;95.72;;;37.72;;
1128;SDS011;553;51.038;7.216;2024-01-15T02:45:04;82.82;;;36.97;;
1128;SDS011;553;51.038;7.216;2024-01-15T02:47:31;101.72;;;38.08;;
1128;SDS011;553;51.038;7.216;2024-01-15T02:49:58;103.45;;;39.38;;
1128;SDS011;553;51.038;7.216;2024-01-15T02:52:25;86.55;;;37.97;;
1128;SDS011;553;51.038;7.216;2024-01-15T02:54:51;82.05;;;35.75;;
1128;SDS011;553;51.038;7.216;2024-01-15T02:57:18;84.40;;;35.17;;
1128;SDS011;553;51.038;7.216;2024-01-15T02:59:45;80.75;;;32.25;;
1128;SDS011;553;51.038;7.216;2024-01-15T03:02:11;88.15;;;35.00;;
1128;SDS011;553;51.038;7.216;2024-01-15T03:04:42;93.07;;;34.97;;
1128;SDS011;553;51.038;7.216;2024-01-15T03:07:09;83.28;;;34.83;;
1128;SDS011;553;51.038;7.216;2024-01-15T03:09:36;86.00;;;35.50;;
1128;SDS011;553;51.038;7.216;2024-01-15T03:12:03;85.63;;;33.15;;
1128;SDS011;553;51.038;7.216;2024-01-15T03:14:30;93.93;;;37.30;;
1128;SDS011;553;51.038;7.216;2024-01-15T03:16:57;75.97;;;32.60;;
1128;SDS011;553;51.038;7.216;2024-01-15T03:19:24;81.90;;;32.90;;
1128;SDS011;553;51.038;7.216;2024-01-15T03:21:51;88.47;;;34.55;;
1128;SDS011;553;51.038;7.216;2024-01-15T03:24:18;87.75;;;35.80;;
1128;SDS011;553;51.038;7.216;2024-01-15T03:26:45;87.65;;;34.63;;
1128;SDS011;553;51.038;7.216;2024-01-15T03:29:11;87.90;;;36.88;;
1128;SDS011;553;51.038;7.216;2024-01-15T03:31:38;85.00;;;34.47;;
1128;SDS011;553;51.038;7.216;2024-01-15T03:34:05;95.53;;;36.35;;
1128;SDS011;553;51.038;7.216;2024-01-15T03:36:32;94.75;;;37.10;;
1128;SDS011;553;51.038;7.216;2024-01-15T03:38:59;83.70;;;32.85;;
1128;SDS011;553;51.038;7.216;2024-01-15T03:41:25;85.63;;;34.03;;
1128;SDS011;553;51.038;7.216;2024-01-15T03:43:52;87.53;;;32.90;;
1128;SDS011;553;51.038;7.216;2024-01-15T03:46:19;78.75;;;33.50;;
1128;SDS011;553;51.038;7.216;2024-01-15T03:48:45;82.20;;;34.58;;
1128;SDS011;553;51.038;7.216;2024-01-15T03:51:12;76.65;;;31.85;;
1128;SDS011;553;51.038;7.216;2024-01-15T03:53:41;83.93;;;33.42;;
1128;SDS011;553;51.038;7.216;2024-01-15T03:56:08;76.22;;;31.20;;
1128;SDS011;553;51.038;7.216;2024-01-15T03:58:34;64.00;;;29.13;;
1128;SDS011;553;51.038;7.216;2024-01-15T04:01:01;68.18;;;32.17;;
1128;SDS011;553;51.038;7.216;2024-01-15T04:03:28;70.47;;;31.20;;
1128;SDS011;553;51.038;7.216;2024-01-15T04:05:55;76.20;;;31.80;;
1128;SDS011;553;51.038;7.216;2024-01-15T04:08:23;82.70;;;32.22;;
1128;SDS011;553;51.038;7.216;2024-01-15T04:10:50;77.40;;;33.95;;
1128;SDS011;553;51.038;7.216;2024-01-15T04:13:16;75.45;;;32.42;;
1128;SDS011;553;51.038;7.216;2024-01-15T04:15:43;75.65;;;32.22;;
1128;SDS011;553;51.038;7.216;2024-01-15T04:18:10;76.95;;;33.50;;
1128;SDS011;553;51.038;7.216;2024-01-15T04:20:37;68.68;;;29.65;;
1128;SDS011;553;51.038;7.216;2024-01-15T04:23:04;74.57;;;34.13;;
1128;SDS011;553;51.038;7.216;2024-01-15T04:25:31;81.72;;;32.90;;
1128;SDS011;553;51.038;7.216;2024-01-15T04:27:58;78.00;;;33.38;;
1128;SDS011;553;51.038;7.216;2024-01-15T04:30:25;88.40;;;35.60;;
1128;SDS011;553;51.038;7.216;2024-01-15T04:32:51;72.55;;;32.42;;
1128;SDS011;553;51.038;7.216;2024-01-15T04:35:18;74.53;;;32.55;;
1128;SDS011;553;51.038;7.216;2024-01-15T04:37:45;69.88;;;30.45;;
1128;SDS011;553;51.038;7.216;2024-01-15T04:40:12;89.68;;;34.08;;
1128;SDS011;553;51.038;7.216;2024-01-15T04:42:39;66.57;;;31.05;;
1128;SDS011;553;51.038;7.216;2024-01-15T04:45:06;70.75;;;30.00;;
1128;SDS011;553;51.038;7.216;2024-01-15T04:47:33;61.97;;;29.58;;
1128;SDS011;553;51.038;7.216;2024-01-15T04:50:00;59.30;;;28.48;;
1128;SDS011;553;51.038;7.216;2024-01-15T04:52:26;72.85;;;28.92;;
1128;SDS011;553;51.038;7.216;2024-01-15T04:54:53;69.25;;;27.23;;
1128;SDS011;553;51.038;7.216;2024-01-15T04:57:20;73.38;;;28.80;;
1128;SDS011;553;51.038;7.216;2024-01-15T04:59:47;66.57;;;28.88;;
1128;SDS011;553;51.038;7.216;2024-01-15T05:02:13;52.13;;;28.40;;
1128;SDS011;553;51.038;7.216;2024-01-15T05:04:40;67.88;;;28.02;;
1128;SDS011;553;51.038;7.216;2024-01-15T05:07:07;65.78;;;28.83;;
1128;SDS011;553;51.038;7.216;2024-01-15T05:09:34;77.40;;;32.08;;
1128;SDS011;553;51.038;7.216;2024-01-15T05:12:01;71.75;;;29.73;;
1128;SDS011;553;51.038;7.216;2024-01-15T05:14:28;58.47;;;26.08;;
1128;SDS011;553;51.038;7.216;2024-01-15T05:16:54;67.53;;;29.42;;
1128;SDS011;553;51.038;7.216;2024-01-15T05:19:21;67.60;;;29.75;;
1128;SDS011;553;51.038;7.216;2024-01-15T05:21:48;59.47;;;28.45;;
1128;SDS011;553;51.038;7.216;2024-01-15T05:24:15;65.60;;;29.20;;
1128;SDS011;553;51.038;7.216;2024-01-15T05:26:42;64.03;;;24.38;;
1128;SDS011;553;51.038;7.216;2024-01-15T05:29:08;59.63;;;28.40;;
1128;SDS011;553;51.038;7.216;2024-01-15T05:31:35;61.08;;;26.88;;
1128;SDS011;553;51.038;7.216;2024-01-15T05:34:03;66.68;;;30.52;;
1128;SDS011;553;51.038;7.216;2024-01-15T05:36:30;73.63;;;27.67;;
1128;SDS011;553;51.038;7.216;2024-01-15T05:38:56;64.40;;;26.70;;
1128;SDS011;553;51.038;7.216;2024-01-15T05:41:23;63.63;;;28.45;;
1128;SDS011;553;51.038;7.216;2024-01-15T05:43:50;60.22;;;27.73;;
1128;SDS011;553;51.038;7.216;2024-01-15T05:46:16;68.85;;;29.83;;
1128;SDS011;553;51.038;7.216;2024-01-15T05:48:43;64.30;;;30.95;;
1128;SDS011;553;51.038;7.216;2024-01-15T05:51:10;59.58;;;29.77;;
1128;SDS011;553;51.038;7.216;2024-01-15T05:53:37;69.90;;;29.95;;
1128;SDS011;553;51.038;7.216;2024-01-15T05:56:07;63.15;;;28.75;;
1128;SDS011;553;51.038;7.216;2024-01-15T05:58:34;56.38;;;26.63;;
1128;SDS011;553;51.038;7.216;2024-01-15T06:01:00;59.90;;;26.05;;
1128;SDS011;553;51.038;7.216;2024-01-15T06:03:27;52.50;;;25.48;;
1128;SDS011;553;51.038;7.216;2024-01-15T06:05:54;54.13;;;24.42;;
1128;SDS011;553;51.038;7.216;2024-01-15T06:08:21;58.65;;;24.67;;
1128;SDS011;553;51.038;7.216;2024-01-15T06:10:47;46.47;;;22.90;;
1128;SDS011;553;51.038;7.216;2024-01-15T06:13:14;54.63;;;24.08;;
1128;SDS011;553;51.038;7.216;2024-01-15T06:15:41;48.25;;;22.45;;
1128;SDS011;553;51.038;7.216;2024-01-15T06:18:08;50.60;;;21.77;;
1128;SDS011;553;51.038;7.216;2024-01-15T06:20:35;41.10;;;20.83;;
1128;SDS011;553;51.038;7.216;2024-01-15T06:23:01;46.97;;;23.35;;
1128;SDS011;553;51.038;7.216;2024-01-15T06:25:28;48.88;;;21.60;;
1128;SDS011;553;51.038;7.216;2024-01-15T06:27:55;47.47;;;23.42;;
1128;SDS011;553;51.038;7.216;2024-01-15T06:30:22;50.13;;;24.40;;
1128;SDS011;553;51.038;7.216;2024-01-15T06:32:49;50.58;;;25.35;;
1128;SDS011;553;51.038;7.216;2024-01-15T06:35:16;54.50;;;23.27;;
1128;SDS011;553;51.038;7.216;2024-01-15T06:37:48;48.25;;;25.20;;
1128;SDS011;553;51.038;7.216;2024-01-15T06:40:15;54.72;;;27.90;;
1128;SDS011;553;51.038;7.216;2024-01-15T06:42:41;51.30;;;24.38;;
1128;SDS011;553;51.038;7.216;2024-01-15T06:45:08;55.60;;;26.42;;
1128;SDS011;553;51.038;7.216;2024-01-15T06:47:35;54.42;;;26.45;;
1128;SDS011;553;51.038;7.216;2024-01-15T06:50:02;48.38;;;22.58;;
1128;SDS011;553;51.038;7.216;2024-01-15T06:52:29;49.85;;;24.55;;
1128;SDS011;553;51.038;7.216;2024-01-15T06:54:55;57.92;;;25.05;;
1128;SDS011;553;51.038;7.216;2024-01-15T06:57:22;47.95;;;21.90;;
1128;SDS011;553;51.038;7.216;2024-01-15T06:59:49;47.45;;;21.48;;
1128;SDS011;553;51.038;7.216;2024-01-15T07:02:15;41.85;;;20.10;;
1128;SDS011;553;51.038;7.216;2024-01-15T07:04:42;39.33;;;20.05;;
1128;SDS011;553;51.038;7.216;2024-01-15T07:07:10;53.20;;;20.98;;
1128;SDS011;553;51.038;7.216;2024-01-15T07:09:37;42.60;;;21.55;;
1128;SDS011;553;51.038;7.216;2024-01-15T07:12:03;41.88;;;22.10;;
1128;SDS011;553;51.038;7.216;2024-01-15T07:14:30;44.97;;;21.23;;
1128;SDS011;553;51.038;7.216;2024-01-15T07:16:57;48.90;;;24.35;;
1128;SDS011;553;51.038;7.216;2024-01-15T07:19:24;38.97;;;20.17;;
1128;SDS011;553;51.038;7.216;2024-01-15T07:21:51;45.08;;;21.95;;
1128;SDS011;553;51.038;7.216;2024-01-15T07:24:22;47.13;;;21.95;;
1128;SDS011;553;51.038;7.216;2024-01-15T07:26:49;46.45;;;22.80;;
1128;SDS011;553;51.038;7.216;2024-01-15T07:29:15;50.75;;;24.42;;
1128;SDS011;553;51.038;7.216;2024-01-15T07:31:47;47.92;;;24.10;;
1128;SDS011;553;51.038;7.216;2024-01-15T07:34:16;45.03;;;23.95;;
1128;SDS011;553;51.038;7.216;2024-01-15T07:36:44;52.78;;;27.90;;
1128;SDS011;553;51.038;7.216;2024-01-15T07:39:11;48.10;;;23.00;;
1128;SDS011;553;51.038;7.216;2024-01-15T07:41:38;45.97;;;24.20;;
1128;SDS011;553;51.038;7.216;2024-01-15T07:44:05;44.08;;;23.88;;
1128;SDS011;553;51.038;7.216;2024-01-15T07:46:32;46.58;;;24.40;;
1128;SDS011;553;51.038;7.216;2024-01-15T07:48:59;51.95;;;25.17;;
1128;SDS011;553;51.038;7.216;2024-01-15T07:51:26;42.78;;;23.40;;
1128;SDS011;553;51.038;7.216;2024-01-15T07:53:53;54.30;;;24.00;;
1128;SDS011;553;51.038;7.216;2024-01-15T07:56:21;50.50;;;24.20;;
1128;SDS011;553;51.038;7.216;2024-01-15T07:58:48;51.28;;;26.10;;
1128;SDS011;553;51.038;7.216;2024-01-15T08:01:15;60.13;;;26.42;;
1128;SDS011;553;51.038;7.216;2024-01-15T08:03:42;47.72;;;25.15;;
1128;SDS011;553;51.038;7.216;2024-01-15T08:06:09;51.83;;;26.08;;
1128;SDS011;553;51.038;7.216;2024-01-15T08:08:36;52.92;;;26.17;;
1128;SDS011;553;51.038;7.216;2024-01-15T08:11:03;47.88;;;26.23;;
1128;SDS011;553;51.038;7.216;2024-01-15T08:13:30;47.42;;;26.17;;
1128;SDS011;553;51.038;7.216;2024-01-15T08:15:57;52.50;;;25.90;;
1128;SDS011;553;51.038;7.216;2024-01-15T08:18:24;57.47;;;25.58;;
1128;SDS011;553;51.038;7.216;2024-01-15T08:20:51;51.15;;;26.52;;
1128;SDS011;553;51.038;7.216;2024-01-15T08:23:18;44.15;;;24.35;;
1128;SDS011;553;51.038;7.216;2024-01-15T08:25:46;44.85;;;20.63;;
1128;SDS011;553;51.038;7.216;2024-01-15T08:28:13;50.38;;;24.67;;
1128;SDS011;553;51.038;7.216;2024-01-15T08:30:39;55.47;;;27.75;;
1128;SDS011;553;51.038;7.216;2024-01-15T08:33:06;47.88;;;24.75;;
1128;SDS011;553;51.038;7.216;2024-01-15T08:35:46;47.90;;;23.98;;
1128;SDS011;553;51.038;7.216;2024-01-15T08:38:13;51.80;;;25.13;;
1128;SDS011;553;51.038;7.216;2024-01-15T08:40:40;55.70;;;28.30;;
1128;SDS011;553;51.038;7.216;2024-01-15T08:43:06;64.85;;;26.55;;
1128;SDS011;553;51.038;7.216;2024-01-15T08:45:33;53.85;;;27.00;;
1128;SDS011;553;51.038;7.216;2024-01-15T08:48:00;44.60;;;24.80;;
1128;SDS011;553;51.038;7.216;2024-01-15T08:50:28;52.40;;;26.65;;
1128;SDS011;553;51.038;7.216;2024-01-15T08:52:56;55.60;;;27.55;;
1128;SDS011;553;51.038;7.216;2024-01-15T08:55:22;51.72;;;27.58;;
1128;SDS011;553;51.038;7.216;2024-01-15T08:57:50;51.17;;;27.17;;
1128;SDS011;553;51.038;7.216;2024-01-15T09:00:17;61.95;;;27.70;;
1128;SDS011;553;51.038;7.216;2024-01-15T09:02:44;57.47;;;26.95;;
1128;SDS011;553;51.038;7.216;2024-01-15T09:05:11;49.03;;;25.70;;
1128;SDS011;553;51.038;7.216;2024-01-15T09:07:38;48.00;;;24.37;;
1128;SDS011;553;51.038;7.216;2024-01-15T09:10:04;47.97;;;22.70;;
1128;SDS011;553;51.038;7.216;2024-01-15T09:12:31;35.55;;;17.25;;
1128;SDS011;553;51.038;7.216;2024-01-15T09:14:58;33.50;;;15.80;;
1128;SDS011;553;51.038;7.216;2024-01-15T09:17:25;22.70;;;12.57;;
1128;SDS011;553;51.038;7.216;2024-01-15T09:19:54;20.27;;;13.70;;
1128;SDS011;553;51.038;7.216;2024-01-15T09:22:21;23.47;;;15.80;;
1128;SDS011;553;51.038;7.216;2024-01-15T09:24:48;22.97;;;15.00;;
1128;SDS011;553;51.038;7.216;2024-01-15T09:27:15;24.13;;;15.67;;
1128;SDS011;553;51.038;7.216;2024-01-15T09:29:42;22.80;;;14.33;;
1128;SDS011;553;51.038;7.216;2024-01-15T09:32:10;24.40;;;15.55;;
1128;SDS011;553;51.038;7.216;2024-01-15T09:34:37;27.47;;;17.03;;
1128;SDS011;553;51.038;7.216;2024-01-15T09:37:04;26.10;;;15.13;;
1128;SDS011;553;51.038;7.216;2024-01-15T09:39:31;36.53;;;19.23;;
1128;SDS011;553;51.038;7.216;2024-01-15T09:41:58;32.42;;;19.50;;
1128;SDS011;553;51.038;7.216;2024-01-15T09:44:25;33.45;;;19.92;;
1128;SDS011;553;51.038;7.216;2024-01-15T09:46:53;34.05;;;19.77;;
1128;SDS011;553;51.038;7.216;2024-01-15T09:49:21;37.58;;;19.92;;
1128;SDS011;553;51.038;7.216;2024-01-15T09:51:48;36.50;;;17.42;;
1128;SDS011;553;51.038;7.216;2024-01-15T09:54:28;26.50;;;17.70;;
1128;SDS011;553;51.038;7.216;2024-01-15T09:56:55;31.23;;;20.45;;
1128;SDS011;553;51.038;7.216;2024-01-15T09:59:22;31.17;;;17.90;;
1128;SDS011;553;51.038;7.216;2024-01-15T10:01:50;28.60;;;17.00;;
1128;SDS011;553;51.038;7.216;2024-01-15T10:04:18;25.55;;;16.45;;
1128;SDS011;553;51.038;7.216;2024-01-15T10:06:45;22.95;;;14.07;;
1128;SDS011;553;51.038;7.216;2024-01-15T10:09:13;25.38;;;13.98;;
1128;SDS011;553;51.038;7.216;2024-01-15T10:11:44;28.90;;;16.38;;
1128;SDS011;553;51.038;7.216;2024-01-15T10:14:11;19.38;;;12.45;;
1128;SDS011;553;51.038;7.216;2024-01-15T10:16:41;21.40;;;13.40;;
1128;SDS011;553;51.038;7.216;2024-01-15T10:19:08;24.58;;;14.05;;
1128;SDS011;553;51.038;7.216;2024-01-15T10:21:36;21.60;;;13.50;;
1128;SDS011;553;51.038;7.216;2024-01-15T10:24:03;22.10;;;12.45;;
1128;SDS011;553;51.038;7.216;2024-01-15T10:26:32;21.23;;;12.05;;
1128;SDS011;553;51.038;7.216;2024-01-15T10:28:59;20.38;;;11.50;;
1128;SDS011;553;51.038;7.216;2024-01-15T10:31:26;18.17;;;11.25;;
1128;SDS011;553;51.038;7.216;2024-01-15T10:34:09;17.35;;;10.85;;
1128;SDS011;553;51.038;7.216;2024-01-15T10:36:41;14.87;;;9.47;;
1128;SDS011;553;51.038;7.216;2024-01-15T10:39:13;15.55;;;8.38;;
1128;SDS011;553;51.038;7.216;2024-01-15T10:41:40;12.70;;;8.05;;
1128;SDS011;553;51.038;7.216;2024-01-15T10:44:06;14.88;;;9.30;;
1128;SDS011;553;51.038;7.216;2024-01-15T10:46:33;13.88;;;8.75;;
1128;SDS011;553;51.038;7.216;2024-01-15T10:49:01;13.85;;;8.30;;
1128;SDS011;553;51.038;7.216;2024-01-15T10:51:34;13.20;;;8.35;;
1128;SDS011;553;51.038;7.216;2024-01-15T10:54:01;12.77;;;7.95;;
1128;SDS011;553;51.038;7.216;2024-01-15T10:56:29;12.38;;;7.53;;
1128;SDS011;553;51.038;7.216;2024-01-15T10:58:59;13.00;;;7.18;;
1128;SDS011;553;51.038;7.216;2024-01-15T11:01:26;10.63;;;7.05;;
1128;SDS011;553;51.038;7.216;2024-01-15T11:03:57;12.07;;;8.38;;
1128;SDS011;553;51.038;7.216;2024-01-15T11:06:24;9.10;;;6.10;;
1128;SDS011;553;51.038;7.216;2024-01-15T11:08:55;9.60;;;5.45;;
1128;SDS011;553;51.038;7.216;2024-01-15T11:11:22;12.90;;;5.65;;
1128;SDS011;553;51.038;7.216;2024-01-15T11:13:49;11.45;;;6.65;;
1128;SDS011;553;51.038;7.216;2024-01-15T11:16:18;12.10;;;7.03;;
1128;SDS011;553;51.038;7.216;2024-01-15T11:21:24;12.32;;;7.22;;
1128;SDS011;553;51.038;7.216;2024-01-15T11:23:54;11.43;;;7.80;;
1128;SDS011;553;51.038;7.216;2024-01-15T11:28:59;20.10;;;9.10;;
1128;SDS011;553;51.038;7.216;2024-01-15T11:34:08;12.85;;;7.00;;
1128;SDS011;553;51.038;7.216;2024-01-15T11:44:24;8.55;;;5.53;;
1128;SDS011;553;51.038;7.216;2024-01-15T11:46:59;10.40;;;6.57;;
1128;SDS011;553;51.038;7.216;2024-01-15T11:52:20;9.07;;;5.43;;
1128;SDS011;553;51.038;7.216;2024-01-15T11:57:51;8.15;;;5.05;;
1128;SDS011;553;51.038;7.216;2024-01-15T12:00:21;5.68;;;4.60;;
1128;SDS011;553;51.038;7.216;2024-01-15T12:02:48;9.93;;;5.53;;
1128;SDS011;553;51.038;7.216;2024-01-15T12:05:17;9.75;;;6.18;;
1128;SDS011;553;51.038;7.216;2024-01-15T12:07:46;9.13;;;5.20;;
1128;SDS011;553;51.038;7.216;2024-01-15T12:10:17;7.83;;;5.00;;
1128;SDS011;553;51.038;7.216;2024-01-15T12:12:58;9.20;;;3.70;;
1128;SDS011;553;51.038;7.216;2024-01-15T12:15:35;7.85;;;4.20;;
1128;SDS011;553;51.038;7.216;2024-01-15T12:18:03;9.43;;;5.07;;
1128;SDS011;553;51.038;7.216;2024-01-15T12:20:30;7.87;;;5.37;;
1128;SDS011;553;51.038;7.216;2024-01-15T12:22:58;6.03;;;4.20;;
1128;SDS011;553;51.038;7.216;2024-01-15T12:25:29;9.53;;;4.73;;
1128;SDS011;553;51.038;7.216;2024-01-15T12:27:57;7.55;;;4.75;;
1128;SDS011;553;51.038;7.216;2024-01-15T12:30:26;6.35;;;4.07;;
1128;SDS011;553;51.038;7.216;2024-01-15T12:32:54;9.30;;;4.80;;
1128;SDS011;553;51.038;7.216;2024-01-15T12:35:20;8.85;;;5.10;;
1128;SDS011;553;51.038;7.216;2024-01-15T12:37:47;14.93;;;5.37;;
1128;SDS011;553;51.038;7.216;2024-01-15T12:40:18;7.37;;;4.60;;
1128;SDS011;553;51.038;7.216;2024-01-15T12:42:46;9.60;;;6.20;;
1128;SDS011;553;51.038;7.216;2024-01-15T12:45:13;8.68;;;5.35;;
1128;SDS011;553;51.038;7.216;2024-01-15T12:47:41;10.73;;;6.53;;
1128;SDS011;553;51.038;7.216;2024-01-15T12:50:09;12.27;;;7.00;;
1128;SDS011;553;51.038;7.216;2024-01-15T12:52:45;16.05;;;8.73;;
1128;SDS011;553;51.038;7.216;2024-01-15T12:55:13;12.00;;;7.80;;
1128;SDS011;553;51.038;7.216;2024-01-15T12:57:41;14.63;;;8.75;;
1128;SDS011;553;51.038;7.216;2024-01-15T13:00:08;11.38;;;8.43;;
1128;SDS011;553;51.038;7.216;2024-01-15T13:02:40;15.73;;;8.65;;
1128;SDS011;553;51.038;7.216;2024-01-15T13:05:08;19.95;;;11.45;;
1128;SDS011;553;51.038;7.216;2024-01-15T13:07:37;13.40;;;10.00;;
1128;SDS011;553;51.038;7.216;2024-01-15T13:10:05;15.07;;;8.93;;
1128;SDS011;553;51.038;7.216;2024-01-15T13:12:33;18.60;;;9.80;;
1128;SDS011;553;51.038;7.216;2024-01-15T13:15:00;14.23;;;9.27;;
1128;SDS011;553;51.038;7.216;2024-01-15T13:17:29;22.48;;;10.55;;
1128;SDS011;553;51.038;7.216;2024-01-15T13:19:56;20.15;;;9.90;;
1128;SDS011;553;51.038;7.216;2024-01-15T13:22:23;19.63;;;9.88;;
1128;SDS011;553;51.038;7.216;2024-01-15T13:24:55;19.38;;;10.45;;
1128;SDS011;553;51.038;7.216;2024-01-15T13:27:22;12.77;;;8.75;;
1128;SDS011;553;51.038;7.216;2024-01-15T13:29:49;16.27;;;8.90;;
1128;SDS011;553;51.038;7.216;2024-01-15T13:32:27;18.92;;;9.35;;
1128;SDS011;553;51.038;7.216;2024-01-15T13:34:59;12.52;;;8.05;;
1128;SDS011;553;51.038;7.216;2024-01-15T13:37:26;16.52;;;8.73;;
1128;SDS011;553;51.038;7.216;2024-01-15T13:39:53;13.65;;;8.80;;
1128;SDS011;553;51.038;7.216;2024-01-15T13:42:20;21.13;;;9.23;;
1128;SDS011;553;51.038;7.216;2024-01-15T13:44:50;14.73;;;8.80;;
1128;SDS011;553;51.038;7.216;2024-01-15T13:47:18;13.32;;;7.43;;
1128;SDS011;553;51.038;7.216;2024-01-15T13:49:44;12.52;;;7.40;;
1128;SDS011;553;51.038;7.216;2024-01-15T13:52:12;16.75;;;7.55;;
1128;SDS011;553;51.038;7.216;2024-01-15T13:54:39;10.43;;;6.85;;
1128;SDS011;553;51.038;7.216;2024-01-15T13:57:16;11.35;;;6.30;;
1128;SDS011;553;51.038;7.216;2024-01-15T13:59:44;8.98;;;6.32;;
1128;SDS011;553;51.038;7.216;2024-01-15T14:02:11;12.85;;;7.88;;
1128;SDS011;553;51.038;7.216;2024-01-15T14:04:42;14.32;;;7.60;;
1128;SDS011;553;51.038;7.216;2024-01-15T14:07:09;11.40;;;6.40;;
1128;SDS011;553;51.038;7.216;2024-01-15T14:09:36;10.35;;;6.13;;
1128;SDS011;553;51.038;7.216;2024-01-15T14:12:04;11.98;;;7.32;;
1128;SDS011;553;51.038;7.216;2024-01-15T14:14:32;9.48;;;6.50;;
1128;SDS011;553;51.038;7.216;2024-01-15T14:16:59;9.60;;;5.95;;
1128;SDS011;553;51.038;7.216;2024-01-15T14:19:26;7.15;;;6.18;;
1128;SDS011;553;51.038;7.216;2024-01-15T14:21:54;11.52;;;6.30;;
1128;SDS011;553;51.038;7.216;2024-01-15T14:24:21;14.70;;;6.40;;
1128;SDS011;553;51.038;7.216;2024-01-15T14:26:48;8.80;;;6.00;;
1128;SDS011;553;51.038;7.216;2024-01-15T14:29:15;6.43;;;5.72;;
1128;SDS011;553;51.038;7.216;2024-01-15T14:31:42;9.90;;;5.85;;
1128;SDS011;553;51.038;7.216;2024-01-15T14:34:09;7.07;;;5.95;;
1128;SDS011;553;51.038;7.216;2024-01-15T14:36:38;7.82;;;5.57;;
1128;SDS011;553;51.038;7.216;2024-01-15T14:39:05;10.00;;;5.25;;
1128;SDS011;553;51.038;7.216;2024-01-15T14:41:32;9.32;;;5.82;;
1128;SDS011;553;51.038;7.216;2024-01-15T14:43:58;7.63;;;5.22;;
1128;SDS011;553;51.038;7.216;2024-01-15T14:46:25;6.63;;;4.82;;
1128;SDS011;553;51.038;7.216;2024-01-15T14:48:53;6.75;;;4.10;;
1128;SDS011;553;51.038;7.216;2024-01-15T14:51:20;6.15;;;4.25;;
1128;SDS011;553;51.038;7.216;2024-01-15T14:53:47;6.60;;;5.25;;
1128;SDS011;553;51.038;7.216;2024-01-15T14:56:14;7.40;;;4.50;;
1128;SDS011;553;51.038;7.216;2024-01-15T14:58:43;7.25;;;4.60;;
1128;SDS011;553;51.038;7.216;2024-01-15T15:01:10;6.68;;;4.50;;
1128;SDS011;553;51.038;7.216;2024-01-15T15:03:38;9.10;;;4.90;;
1128;SDS011;553;51.038;7.216;2024-01-15T15:06:05;5.63;;;4.13;;
1128;SDS011;553;51.038;7.216;2024-01-15T15:08:35;8.40;;;4.45;;
1128;SDS011;553;51.038;7.216;2024-01-15T15:11:03;6.50;;;3.17;;
1128;SDS011;553;51.038;7.216;2024-01-15T15:13:30;8.85;;;4.97;;
1128;SDS011;553;51.038;7.216;2024-01-15T15:16:10;8.15;;;5.35;;
1128;SDS011;553;51.038;7.216;2024-01-15T15:18:37;7.32;;;4.82;;
1128;SDS011;553;51.038;7.216;2024-01-15T15:21:04;13.07;;;5.07;;
1128;SDS011;553;51.038;7.216;2024-01-15T15:23:31;8.35;;;5.60;;
1128;SDS011;553;51.038;7.216;2024-01-15T15:25:58;9.35;;;5.40;;
1128;SDS011;553;51.038;7.216;2024-01-15T15:28:25;9.25;;;6.03;;
1128;SDS011;553;51.038;7.216;2024-01-15T15:30:52;6.05;;;4.40;;